sensor_id;sensor_type;location;lat;lon;timestamp;pressure;altitude;pressure_sealevel;temperature;humidity
67345;BME280;54230;52.402;6.276;2023-05-09T00:00:00;101810.0;;;19.1;74.8
67345;BME280;54230;52.402;6.276;2023-05-09T00:05:00;101800.0;;;19.1;75.0
67345;BME280;54230;52.402;6.276;2023-05-09T00:10:00;101800.0;;;19.1;74.7
67345;BME280;54230;52.402;6.276;2023-05-09T00:15:00;101800.0;;;19.2;74.5
67345;BME280;54230;52.402;6.276;2023-05-09T00:20:00;101790.0;;;19.2;74.6
67345;BME280;54230;52.402;6.276;2023-05-09T00:25:00;101780.0;;;19.2;74.9
67345;BME280;54230;52.402;6.276;2023-05-09T00:30:00;101770.0;;;19.2;74.3
67345;BME280;54230;52.402;6.276;2023-05-09T00:35:00;101750.0;;;19.2;72.9
67345;BME280;54230;52.402;6.276;2023-05-09T00:40:00;101730.0;;;19.0;73.2
67345;BME280;54230;52.402;6.276;2023-05-09T00:45:00;101710.0;;;18.8;74.1
67345;BME280;54230;52.402;6.276;2023-05-09T00:50:00;101730.0;;;18.7;75.0
67345;BME280;54230;52.402;6.276;2023-05-09T00:55:00;101720.0;;;18.5;75.5
67345;BME280;54230;52.402;6.276;2023-05-09T01:00:00;101730.0;;;18.5;76.4
67345;BME280;54230;52.402;6.276;2023-05-09T01:05:00;101730.0;;;18.5;75.9
67345;BME280;54230;52.402;6.276;2023-05-09T01:10:05;101720.0;;;18.5;76.3
67345;BME280;54230;52.402;6.276;2023-05-09T01:15:05;101720.0;;;18.5;76.5
67345;BME280;54230;52.402;6.276;2023-05-09T01:20:05;101720.0;;;18.6;76.6
67345;BME280;54230;52.402;6.276;2023-05-09T01:25:05;101700.0;;;18.7;76.1
67345;BME280;54230;52.402;6.276;2023-05-09T01:30:02;101690.0;;;18.6;76.1
67345;BME280;54230;52.402;6.276;2023-05-09T01:35:01;101680.0;;;18.6;76.0
67345;BME280;54230;52.402;6.276;2023-05-09T01:40:06;101680.0;;;18.5;76.0
67345;BME280;54230;52.402;6.276;2023-05-09T01:45:01;101680.0;;;18.4;76.3
67345;BME280;54230;52.402;6.276;2023-05-09T01:50:01;101680.0;;;18.4;76.3
67345;BME280;54230;52.402;6.276;2023-05-09T01:55:01;101680.0;;;18.4;76.2
67345;BME280;54230;52.402;6.276;2023-05-09T02:00:00;101670.0;;;18.4;75.5
67345;BME280;54230;52.402;6.276;2023-05-09T02:05:00;101670.0;;;18.4;75.2
67345;BME280;54230;52.402;6.276;2023-05-09T02:10:01;101670.0;;;18.3;75.8
67345;BME280;54230;52.402;6.276;2023-05-09T02:15:00;101670.0;;;18.2;76.6
67345;BME280;54230;52.402;6.276;2023-05-09T02:20:00;101670.0;;;18.2;76.6
67345;BME280;54230;52.402;6.276;2023-05-09T02:25:01;101660.0;;;18.2;76.4
67345;BME280;54230;52.402;6.276;2023-05-09T02:30:03;101660.0;;;18.2;77.1
67345;BME280;54230;52.402;6.276;2023-05-09T02:35:01;101660.0;;;18.2;76.8
67345;BME280;54230;52.402;6.276;2023-05-09T02:40:00;101660.0;;;18.2;77.2
67345;BME280;54230;52.402;6.276;2023-05-09T02:45:00;101650.0;;;18.3;77.1
67345;BME280;54230;52.402;6.276;2023-05-09T02:50:00;101640.0;;;18.4;76.6
67345;BME280;54230;52.402;6.276;2023-05-09T02:55:00;101640.0;;;18.5;75.7
67345;BME280;54230;52.402;6.276;2023-05-09T03:00:00;101630.0;;;18.4;76.6
67345;BME280;54230;52.402;6.276;2023-05-09T03:05:00;101630.0;;;18.5;76.4
67345;BME280;54230;52.402;6.276;2023-05-09T03:10:00;101620.0;;;18.5;76.3
67345;BME280;54230;52.402;6.276;2023-05-09T03:15:00;101610.0;;;18.6;76.7
67345;BME280;54230;52.402;6.276;2023-05-09T03:20:00;101610.0;;;18.7;76.3
67345;BME280;54230;52.402;6.276;2023-05-09T03:25:00;101600.0;;;18.8;75.9
67345;BME280;54230;52.402;6.276;2023-05-09T03:30:00;101600.0;;;18.8;76.1
67345;BME280;54230;52.402;6.276;2023-05-09T03:35:00;101600.0;;;18.7;76.3
67345;BME280;54230;52.402;6.276;2023-05-09T03:40:00;101590.0;;;18.5;77.1
67345;BME280;54230;52.402;6.276;2023-05-09T03:45:00;101600.0;;;18.6;76.9
67345;BME280;54230;52.402;6.276;2023-05-09T03:50:00;101590.0;;;18.7;76.5
67345;BME280;54230;52.402;6.276;2023-05-09T03:55:00;101580.0;;;18.7;76.7
67345;BME280;54230;52.402;6.276;2023-05-09T04:00:00;101570.0;;;18.8;76.1
67345;BME280;54230;52.402;6.276;2023-05-09T04:05:00;101570.0;;;18.7;76.7
67345;BME280;54230;52.402;6.276;2023-05-09T04:10:00;101570.0;;;18.6;77.1
67345;BME280;54230;52.402;6.276;2023-05-09T04:15:00;101570.0;;;18.8;76.7
67345;BME280;54230;52.402;6.276;2023-05-09T04:20:00;101570.0;;;18.8;76.6
67345;BME280;54230;52.402;6.276;2023-05-09T04:25:00;101570.0;;;18.7;76.9
67345;BME280;54230;52.402;6.276;2023-05-09T04:30:00;101560.0;;;18.8;76.4
67345;BME280;54230;52.402;6.276;2023-05-09T04:35:00;101560.0;;;18.8;76.2
67345;BME280;54230;52.402;6.276;2023-05-09T04:40:00;101560.0;;;18.9;76.1
67345;BME280;54230;52.402;6.276;2023-05-09T04:45:00;101560.0;;;18.9;76.0
67345;BME280;54230;52.402;6.276;2023-05-09T04:50:00;101540.0;;;19.0;75.4
67345;BME280;54230;52.402;6.276;2023-05-09T04:55:00;101540.0;;;19.0;75.7
67345;BME280;54230;52.402;6.276;2023-05-09T05:00:00;101540.0;;;19.0;75.3
67345;BME280;54230;52.402;6.276;2023-05-09T05:05:00;101540.0;;;19.0;74.8
67345;BME280;54230;52.402;6.276;2023-05-09T05:10:00;101540.0;;;19.0;74.9
67345;BME280;54230;52.402;6.276;2023-05-09T05:15:00;101530.0;;;19.0;74.7
67345;BME280;54230;52.402;6.276;2023-05-09T05:20:00;101530.0;;;19.0;74.1
67345;BME280;54230;52.402;6.276;2023-05-09T05:25:00;101520.0;;;19.0;73.9
67345;BME280;54230;52.402;6.276;2023-05-09T05:30:00;101510.0;;;18.9;74.2
67345;BME280;54230;52.402;6.276;2023-05-09T05:35:00;101510.0;;;19.0;73.7
67345;BME280;54230;52.402;6.276;2023-05-09T05:40:00;101510.0;;;19.1;73.7
67345;BME280;54230;52.402;6.276;2023-05-09T05:45:00;101510.0;;;19.2;73.9
67345;BME280;54230;52.402;6.276;2023-05-09T05:50:01;101510.0;;;19.1;73.9
67345;BME280;54230;52.402;6.276;2023-05-09T05:55:00;101490.0;;;19.2;73.5
67345;BME280;54230;52.402;6.276;2023-05-09T06:00:00;101490.0;;;19.2;73.3
67345;BME280;54230;52.402;6.276;2023-05-09T06:05:00;101490.0;;;19.1;73.6
67345;BME280;54230;52.402;6.276;2023-05-09T06:10:00;101480.0;;;19.0;73.8
67345;BME280;54230;52.402;6.276;2023-05-09T06:15:00;101470.0;;;19.0;73.7
67345;BME280;54230;52.402;6.276;2023-05-09T06:20:00;101470.0;;;19.0;73.7
67345;BME280;54230;52.402;6.276;2023-05-09T06:25:00;101470.0;;;19.0;73.6
67345;BME280;54230;52.402;6.276;2023-05-09T06:30:00;101460.0;;;19.0;73.0
67345;BME280;54230;52.402;6.276;2023-05-09T06:35:00;101450.0;;;19.1;72.6
67345;BME280;54230;52.402;6.276;2023-05-09T06:40:00;101440.0;;;19.4;72.1
67345;BME280;54230;52.402;6.276;2023-05-09T06:45:00;101430.0;;;19.6;70.9
67345;BME280;54230;52.402;6.276;2023-05-09T06:50:00;101430.0;;;19.6;70.0
67345;BME280;54230;52.402;6.276;2023-05-09T06:55:00;101430.0;;;19.6;70.0
67345;BME280;54230;52.402;6.276;2023-05-09T07:00:00;101430.0;;;19.6;69.8
67345;BME280;54230;52.402;6.276;2023-05-09T07:05:00;101420.0;;;19.7;69.0
67345;BME280;54230;52.402;6.276;2023-05-09T07:10:00;101410.0;;;19.5;69.3
67345;BME280;54230;52.402;6.276;2023-05-09T07:15:00;101410.0;;;19.5;69.8
67345;BME280;54230;52.402;6.276;2023-05-09T07:20:00;101400.0;;;19.6;68.2
67345;BME280;54230;52.402;6.276;2023-05-09T07:25:00;101400.0;;;19.8;68.3
67345;BME280;54230;52.402;6.276;2023-05-09T07:30:00;101390.0;;;19.8;68.0
67345;BME280;54230;52.402;6.276;2023-05-09T07:35:00;101380.0;;;19.8;67.6
67345;BME280;54230;52.402;6.276;2023-05-09T07:40:00;101390.0;;;19.9;68.2
67345;BME280;54230;52.402;6.276;2023-05-09T07:45:00;101380.0;;;20.4;67.3
67345;BME280;54230;52.402;6.276;2023-05-09T07:50:00;101370.0;;;21.0;65.6
67345;BME280;54230;52.402;6.276;2023-05-09T07:55:00;101360.0;;;21.3;64.1
67345;BME280;54230;52.402;6.276;2023-05-09T08:00:00;101370.0;;;21.5;62.4
67345;BME280;54230;52.402;6.276;2023-05-09T08:05:00;101350.0;;;21.3;62.6
67345;BME280;54230;52.402;6.276;2023-05-09T08:10:00;101350.0;;;21.4;62.6
67345;BME280;54230;52.402;6.276;2023-05-09T08:15:00;101340.0;;;21.6;62.1
67345;BME280;54230;52.402;6.276;2023-05-09T08:20:00;101340.0;;;21.6;62.5
67345;BME280;54230;52.402;6.276;2023-05-09T08:25:00;101330.0;;;21.6;61.1
67345;BME280;54230;52.402;6.276;2023-05-09T08:30:00;101320.0;;;21.7;61.0
67345;BME280;54230;52.402;6.276;2023-05-09T08:35:00;101320.0;;;21.7;60.9
67345;BME280;54230;52.402;6.276;2023-05-09T08:40:00;101310.0;;;22.0;60.5
67345;BME280;54230;52.402;6.276;2023-05-09T08:45:04;101310.0;;;22.2;58.3
67345;BME280;54230;52.402;6.276;2023-05-09T08:50:01;101300.0;;;22.2;58.9
67345;BME280;54230;52.402;6.276;2023-05-09T08:55:01;101300.0;;;22.1;58.2
67345;BME280;54230;52.402;6.276;2023-05-09T09:00:00;101290.0;;;21.9;57.8
67345;BME280;54230;52.402;6.276;2023-05-09T09:05:00;101280.0;;;22.1;57.5
67345;BME280;54230;52.402;6.276;2023-05-09T09:10:02;101280.0;;;22.7;56.4
67345;BME280;54230;52.402;6.276;2023-05-09T09:15:03;101270.0;;;22.9;55.0
67345;BME280;54230;52.402;6.276;2023-05-09T09:20:02;101260.0;;;22.7;55.1
67345;BME280;54230;52.402;6.276;2023-05-09T09:25:00;101270.0;;;23.0;54.9
67345;BME280;54230;52.402;6.276;2023-05-09T09:30:05;101250.0;;;23.1;54.3
67345;BME280;54230;52.402;6.276;2023-05-09T09:35:04;101250.0;;;23.5;52.9
67345;BME280;54230;52.402;6.276;2023-05-09T09:40:01;101250.0;;;23.7;50.9
67345;BME280;54230;52.402;6.276;2023-05-09T09:45:01;101240.0;;;23.9;50.7
67345;BME280;54230;52.402;6.276;2023-05-09T09:50:08;101240.0;;;24.1;49.3
67345;BME280;54230;52.402;6.276;2023-05-09T09:55:00;101230.0;;;23.7;49.5
67345;BME280;54230;52.402;6.276;2023-05-09T10:00:00;101240.0;;;23.6;50.2
67345;BME280;54230;52.402;6.276;2023-05-09T10:05:08;101230.0;;;23.2;50.8
67345;BME280;54230;52.402;6.276;2023-05-09T10:10:00;101230.0;;;23.2;51.4
67345;BME280;54230;52.402;6.276;2023-05-09T10:15:01;101220.0;;;23.5;51.1
67345;BME280;54230;52.402;6.276;2023-05-09T10:20:03;101230.0;;;23.3;51.2
67345;BME280;54230;52.402;6.276;2023-05-09T10:25:02;101220.0;;;23.4;51.4
67345;BME280;54230;52.402;6.276;2023-05-09T10:30:02;101220.0;;;23.7;51.1
67345;BME280;54230;52.402;6.276;2023-05-09T10:35:03;101210.0;;;24.1;50.7
67345;BME280;54230;52.402;6.276;2023-05-09T10:40:02;101200.0;;;24.2;49.8
67345;BME280;54230;52.402;6.276;2023-05-09T10:45:00;101190.0;;;24.1;49.9
67345;BME280;54230;52.402;6.276;2023-05-09T10:50:00;101190.0;;;23.5;50.9
67345;BME280;54230;52.402;6.276;2023-05-09T10:55:03;101180.0;;;23.6;51.9
67345;BME280;54230;52.402;6.276;2023-05-09T11:00:00;101180.0;;;23.8;51.7
67345;BME280;54230;52.402;6.276;2023-05-09T11:05:11;101170.0;;;24.0;51.5
67345;BME280;54230;52.402;6.276;2023-05-09T11:10:08;101160.0;;;23.9;51.2
67345;BME280;54230;52.402;6.276;2023-05-09T11:15:04;101160.0;;;23.8;51.2
67345;BME280;54230;52.402;6.276;2023-05-09T11:20:02;101160.0;;;24.2;50.3
67345;BME280;54230;52.402;6.276;2023-05-09T11:25:03;101150.0;;;23.8;51.1
67345;BME280;54230;52.402;6.276;2023-05-09T11:30:04;101150.0;;;23.6;52.0
67345;BME280;54230;52.402;6.276;2023-05-09T11:35:04;101150.0;;;23.3;53.3
67345;BME280;54230;52.402;6.276;2023-05-09T11:40:01;101140.0;;;23.1;54.1
67345;BME280;54230;52.402;6.276;2023-05-09T11:45:02;101140.0;;;22.9;54.9
67345;BME280;54230;52.402;6.276;2023-05-09T11:50:00;101140.0;;;22.9;56.0
67345;BME280;54230;52.402;6.276;2023-05-09T11:55:00;101140.0;;;22.9;56.9
67345;BME280;54230;52.402;6.276;2023-05-09T12:00:00;101130.0;;;22.9;56.6
67345;BME280;54230;52.402;6.276;2023-05-09T12:05:09;101110.0;;;23.0;56.2
67345;BME280;54230;52.402;6.276;2023-05-09T12:10:00;101120.0;;;23.5;55.3
67345;BME280;54230;52.402;6.276;2023-05-09T12:15:03;101110.0;;;23.6;55.6
67345;BME280;54230;52.402;6.276;2023-05-09T12:20:00;101110.0;;;23.6;56.0
67345;BME280;54230;52.402;6.276;2023-05-09T12:25:03;101100.0;;;23.4;55.4
67345;BME280;54230;52.402;6.276;2023-05-09T12:30:00;101090.0;;;23.3;55.4
67345;BME280;54230;52.402;6.276;2023-05-09T12:35:00;101110.0;;;23.2;56.7
67345;BME280;54230;52.402;6.276;2023-05-09T12:40:01;101100.0;;;23.2;57.8
67345;BME280;54230;52.402;6.276;2023-05-09T12:45:01;101090.0;;;23.2;57.8
67345;BME280;54230;52.402;6.276;2023-05-09T12:50:01;101090.0;;;23.2;56.7
67345;BME280;54230;52.402;6.276;2023-05-09T12:55:05;101090.0;;;23.0;57.0
67345;BME280;54230;52.402;6.276;2023-05-09T13:00:02;101080.0;;;22.7;58.4
67345;BME280;54230;52.402;6.276;2023-05-09T13:05:04;101080.0;;;22.4;58.7
67345;BME280;54230;52.402;6.276;2023-05-09T13:10:00;101090.0;;;22.4;58.9
67345;BME280;54230;52.402;6.276;2023-05-09T13:15:00;101090.0;;;22.1;59.7
67345;BME280;54230;52.402;6.276;2023-05-09T13:20:00;101080.0;;;21.9;60.7
67345;BME280;54230;52.402;6.276;2023-05-09T13:25:01;101070.0;;;21.6;61.3
67345;BME280;54230;52.402;6.276;2023-05-09T13:30:00;101070.0;;;21.7;62.2
67345;BME280;54230;52.402;6.276;2023-05-09T13:35:00;101070.0;;;21.7;62.6
67345;BME280;54230;52.402;6.276;2023-05-09T13:40:00;101040.0;;;21.6;61.2
67345;BME280;54230;52.402;6.276;2023-05-09T13:45:00;101050.0;;;21.6;61.1
67345;BME280;54230;52.402;6.276;2023-05-09T13:50:00;101050.0;;;21.5;62.2
67345;BME280;54230;52.402;6.276;2023-05-09T13:55:00;101040.0;;;21.3;62.6
67345;BME280;54230;52.402;6.276;2023-05-09T14:00:00;101040.0;;;21.0;63.6
67345;BME280;54230;52.402;6.276;2023-05-09T14:05:00;101030.0;;;20.7;63.7
67345;BME280;54230;52.402;6.276;2023-05-09T14:10:00;101040.0;;;20.6;65.1
67345;BME280;54230;52.402;6.276;2023-05-09T14:15:00;101030.0;;;20.5;65.8
67345;BME280;54230;52.402;6.276;2023-05-09T14:20:00;101020.0;;;20.5;66.2
67345;BME280;54230;52.402;6.276;2023-05-09T14:25:00;101010.0;;;20.6;66.3
67345;BME280;54230;52.402;6.276;2023-05-09T14:30:00;101000.0;;;20.6;66.0
67345;BME280;54230;52.402;6.276;2023-05-09T14:35:00;101000.0;;;20.2;66.8
67345;BME280;54230;52.402;6.276;2023-05-09T14:40:00;101000.0;;;20.0;67.8
67345;BME280;54230;52.402;6.276;2023-05-09T14:45:00;101000.0;;;20.0;68.2
67345;BME280;54230;52.402;6.276;2023-05-09T14:50:00;100990.0;;;19.9;68.2
67345;BME280;54230;52.402;6.276;2023-05-09T14:55:00;100990.0;;;19.8;69.6
67345;BME280;54230;52.402;6.276;2023-05-09T15:00:00;100980.0;;;19.9;70.0
67345;BME280;54230;52.402;6.276;2023-05-09T15:05:00;100970.0;;;19.9;70.3
67345;BME280;54230;52.402;6.276;2023-05-09T15:10:01;100970.0;;;20.2;70.6
67345;BME280;54230;52.402;6.276;2023-05-09T15:15:11;100960.0;;;20.2;70.7
67345;BME280;54230;52.402;6.276;2023-05-09T15:20:00;100950.0;;;20.1;71.0
67345;BME280;54230;52.402;6.276;2023-05-09T15:25:00;100950.0;;;20.3;70.8
67345;BME280;54230;52.402;6.276;2023-05-09T15:30:00;100940.0;;;20.5;69.9
67345;BME280;54230;52.402;6.276;2023-05-09T15:35:00;100930.0;;;20.1;70.0
67345;BME280;54230;52.402;6.276;2023-05-09T15:40:00;100930.0;;;20.0;70.7
67345;BME280;54230;52.402;6.276;2023-05-09T15:45:00;100930.0;;;20.0;71.5
67345;BME280;54230;52.402;6.276;2023-05-09T15:50:00;100930.0;;;20.2;70.3
67345;BME280;54230;52.402;6.276;2023-05-09T15:55:00;100930.0;;;20.0;69.8
67345;BME280;54230;52.402;6.276;2023-05-09T16:00:00;100920.0;;;19.7;70.1
67345;BME280;54230;52.402;6.276;2023-05-09T16:05:00;100910.0;;;19.7;71.5
67345;BME280;54230;52.402;6.276;2023-05-09T16:10:00;100900.0;;;19.8;71.0
67345;BME280;54230;52.402;6.276;2023-05-09T16:15:00;100900.0;;;19.9;69.7
67345;BME280;54230;52.402;6.276;2023-05-09T16:20:00;100890.0;;;19.9;69.8
67345;BME280;54230;52.402;6.276;2023-05-09T16:25:00;100890.0;;;20.0;70.1
67345;BME280;54230;52.402;6.276;2023-05-09T16:30:00;100890.0;;;20.0;69.6
67345;BME280;54230;52.402;6.276;2023-05-09T16:35:00;100890.0;;;20.0;70.1
67345;BME280;54230;52.402;6.276;2023-05-09T16:40:00;100880.0;;;19.9;69.9
67345;BME280;54230;52.402;6.276;2023-05-09T16:45:00;100880.0;;;19.9;69.1
67345;BME280;54230;52.402;6.276;2023-05-09T16:50:00;100870.0;;;19.9;69.6
67345;BME280;54230;52.402;6.276;2023-05-09T16:55:00;100870.0;;;19.7;69.0
67345;BME280;54230;52.402;6.276;2023-05-09T17:00:00;100860.0;;;19.6;70.0
67345;BME280;54230;52.402;6.276;2023-05-09T17:05:00;100870.0;;;19.6;70.3
67345;BME280;54230;52.402;6.276;2023-05-09T17:10:00;100870.0;;;19.5;70.1
67345;BME280;54230;52.402;6.276;2023-05-09T17:15:00;100860.0;;;19.5;69.5
67345;BME280;54230;52.402;6.276;2023-05-09T17:20:00;100860.0;;;19.7;70.0
67345;BME280;54230;52.402;6.276;2023-05-09T17:25:00;100850.0;;;19.9;69.5
67345;BME280;54230;52.402;6.276;2023-05-09T17:30:01;100850.0;;;19.6;69.7
67345;BME280;54230;52.402;6.276;2023-05-09T17:35:00;100850.0;;;19.4;70.4
67345;BME280;54230;52.402;6.276;2023-05-09T17:40:00;100850.0;;;19.3;70.5
67345;BME280;54230;52.402;6.276;2023-05-09T17:45:00;100840.0;;;19.3;71.6
67345;BME280;54230;52.402;6.276;2023-05-09T17:50:00;100840.0;;;19.4;70.6
67345;BME280;54230;52.402;6.276;2023-05-09T17:55:00;100840.0;;;19.2;70.5
67345;BME280;54230;52.402;6.276;2023-05-09T18:00:00;100850.0;;;19.1;70.7
67345;BME280;54230;52.402;6.276;2023-05-09T18:05:00;100850.0;;;19.1;70.6
67345;BME280;54230;52.402;6.276;2023-05-09T18:10:00;100840.0;;;19.0;70.9
67345;BME280;54230;52.402;6.276;2023-05-09T18:15:00;100850.0;;;18.8;71.5
67345;BME280;54230;52.402;6.276;2023-05-09T18:20:00;100850.0;;;18.8;72.2
67345;BME280;54230;52.402;6.276;2023-05-09T18:25:00;100850.0;;;18.9;72.3
67345;BME280;54230;52.402;6.276;2023-05-09T18:30:00;100850.0;;;18.8;71.8
67345;BME280;54230;52.402;6.276;2023-05-09T18:35:00;100850.0;;;18.8;72.5
67345;BME280;54230;52.402;6.276;2023-05-09T18:40:00;100850.0;;;18.8;72.9
67345;BME280;54230;52.402;6.276;2023-05-09T18:45:00;100850.0;;;18.9;72.7
67345;BME280;54230;52.402;6.276;2023-05-09T18:50:00;100850.0;;;18.9;72.5
67345;BME280;54230;52.402;6.276;2023-05-09T18:55:00;100850.0;;;18.8;72.8
67345;BME280;54230;52.402;6.276;2023-05-09T19:00:00;100850.0;;;18.8;73.1
67345;BME280;54230;52.402;6.276;2023-05-09T19:05:00;100850.0;;;18.8;72.7
67345;BME280;54230;52.402;6.276;2023-05-09T19:10:00;100850.0;;;18.7;72.8
67345;BME280;54230;52.402;6.276;2023-05-09T19:15:00;100850.0;;;18.5;73.6
67345;BME280;54230;52.402;6.276;2023-05-09T19:20:00;100850.0;;;18.5;73.9
67345;BME280;54230;52.402;6.276;2023-05-09T19:25:00;100850.0;;;18.5;74.4
67345;BME280;54230;52.402;6.276;2023-05-09T19:30:00;100850.0;;;18.4;74.4
67345;BME280;54230;52.402;6.276;2023-05-09T19:35:00;100840.0;;;18.4;74.5
67345;BME280;54230;52.402;6.276;2023-05-09T19:40:00;100840.0;;;18.5;74.5
67345;BME280;54230;52.402;6.276;2023-05-09T19:45:01;100840.0;;;18.5;74.1
67345;BME280;54230;52.402;6.276;2023-05-09T19:50:00;100840.0;;;18.5;74.4
67345;BME280;54230;52.402;6.276;2023-05-09T19:55:00;100850.0;;;18.4;74.8
67345;BME280;54230;52.402;6.276;2023-05-09T20:00:00;100850.0;;;18.4;75.4
67345;BME280;54230;52.402;6.276;2023-05-09T20:05:00;100850.0;;;18.3;75.0
67345;BME280;54230;52.402;6.276;2023-05-09T20:10:00;100850.0;;;18.3;75.5
67345;BME280;54230;52.402;6.276;2023-05-09T20:15:00;100840.0;;;18.4;75.3
67345;BME280;54230;52.402;6.276;2023-05-09T20:20:00;100840.0;;;18.5;74.3
67345;BME280;54230;52.402;6.276;2023-05-09T20:25:00;100840.0;;;18.4;74.5
67345;BME280;54230;52.402;6.276;2023-05-09T20:30:00;100840.0;;;18.1;74.7
67345;BME280;54230;52.402;6.276;2023-05-09T20:35:01;100840.0;;;18.1;75.2
67345;BME280;54230;52.402;6.276;2023-05-09T20:40:01;100840.0;;;18.1;75.1
67345;BME280;54230;52.402;6.276;2023-05-09T20:45:00;100840.0;;;18.1;75.5
67345;BME280;54230;52.402;6.276;2023-05-09T20:50:00;100830.0;;;18.0;75.7
67345;BME280;54230;52.402;6.276;2023-05-09T20:55:00;100830.0;;;18.1;75.9
67345;BME280;54230;52.402;6.276;2023-05-09T21:00:00;100830.0;;;18.1;75.7
67345;BME280;54230;52.402;6.276;2023-05-09T21:05:00;100830.0;;;17.9;76.3
67345;BME280;54230;52.402;6.276;2023-05-09T21:10:00;100830.0;;;17.9;76.7
67345;BME280;54230;52.402;6.276;2023-05-09T21:15:00;100830.0;;;17.9;76.8
67345;BME280;54230;52.402;6.276;2023-05-09T21:20:00;100830.0;;;17.8;77.0
67345;BME280;54230;52.402;6.276;2023-05-09T21:25:00;100830.0;;;17.8;77.6
67345;BME280;54230;52.402;6.276;2023-05-09T21:30:00;100820.0;;;17.7;77.5
67345;BME280;54230;52.402;6.276;2023-05-09T21:35:01;100820.0;;;17.6;77.8
67345;BME280;54230;52.402;6.276;2023-05-09T21:40:00;100820.0;;;17.7;77.7
67345;BME280;54230;52.402;6.276;2023-05-09T21:45:00;100810.0;;;17.7;77.7
67345;BME280;54230;52.402;6.276;2023-05-09T21:50:01;100810.0;;;17.7;77.7
67345;BME280;54230;52.402;6.276;2023-05-09T21:55:00;100810.0;;;17.6;77.7
67345;BME280;54230;52.402;6.276;2023-05-09T22:00:00;100810.0;;;17.6;77.8
67345;BME280;54230;52.402;6.276;2023-05-09T22:05:00;100810.0;;;17.5;78.2
67345;BME280;54230;52.402;6.276;2023-05-09T22:10:00;100810.0;;;17.4;78.3
67345;BME280;54230;52.402;6.276;2023-05-09T22:15:00;100820.0;;;17.3;78.5
67345;BME280;54230;52.402;6.276;2023-05-09T22:20:00;100820.0;;;17.0;78.5
67345;BME280;54230;52.402;6.276;2023-05-09T22:25:02;100820.0;;;16.7;78.9
67345;BME280;54230;52.402;6.276;2023-05-09T22:30:00;100820.0;;;16.6;79.2
67345;BME280;54230;52.402;6.276;2023-05-09T22:35:00;100820.0;;;16.4;79.5
67345;BME280;54230;52.402;6.276;2023-05-09T22:40:00;100820.0;;;16.3;79.8
67345;BME280;54230;52.402;6.276;2023-05-09T22:45:00;100820.0;;;16.1;80.1
67345;BME280;54230;52.402;6.276;2023-05-09T22:50:00;100820.0;;;16.0;80.7
67345;BME280;54230;52.402;6.276;2023-05-09T22:55:00;100820.0;;;16.0;81.1
67345;BME280;54230;52.402;6.276;2023-05-09T23:00:00;100820.0;;;15.9;81.1
67345;BME280;54230;52.402;6.276;2023-05-09T23:05:00;100820.0;;;15.9;81.6
67345;BME280;54230;52.402;6.276;2023-05-09T23:10:00;100810.0;;;15.8;81.9
67345;BME280;54230;52.402;6.276;2023-05-09T23:15:00;100820.0;;;15.9;81.8
67345;BME280;54230;52.402;6.276;2023-05-09T23:20:00;100820.0;;;15.9;81.6
67345;BME280;54230;52.402;6.276;2023-05-09T23:25:00;100820.0;;;15.9;81.7
67345;BME280;54230;52.402;6.276;2023-05-09T23:30:00;100820.0;;;16.0;81.5
67345;BME280;54230;52.402;6.276;2023-05-09T23:35:00;100820.0;;;15.9;81.6
67345;BME280;54230;52.402;6.276;2023-05-09T23:40:01;100820.0;;;15.9;81.6
67345;BME280;54230;52.402;6.276;2023-05-09T23:45:00;100810.0;;;15.9;81.6
67345;BME280;54230;52.402;6.276;2023-05-09T23:50:00;100810.0;;;15.9;81.6
67345;BME280;54230;52.402;6.276;2023-05-09T23:55:00;100820.0;;;15.9;81.6
